createdAt,value
2018-12-28T00:00:44.825Z,9.40
2018-12-28T00:03:13.310Z,9.53
2018-12-28T00:05:41.778Z,8.53
2018-12-28T00:08:10.215Z,8.23
2018-12-28T00:10:38.660Z,8.13
2018-12-28T00:13:07.112Z,8.40
2018-12-28T00:15:35.593Z,8.17
2018-12-28T00:18:04.080Z,8.03
2018-12-28T00:20:32.532Z,8.00
2018-12-28T00:23:00.959Z,8.00
2018-12-28T00:25:29.428Z,9.33
2018-12-28T00:27:57.920Z,8.20
2018-12-28T00:30:26.416Z,8.03
2018-12-28T00:32:54.935Z,8.40
2018-12-28T00:35:23.364Z,8.40
2018-12-28T00:37:51.835Z,8.50
2018-12-28T00:40:20.327Z,8.20
2018-12-28T00:42:48.805Z,9.27
2018-12-28T00:45:17.520Z,8.67
2018-12-28T00:47:47.059Z,9.20
2018-12-28T00:50:15.507Z,8.97
2018-12-28T00:52:43.953Z,9.30
2018-12-28T00:55:12.410Z,7.63
2018-12-28T00:57:40.906Z,8.30
2018-12-28T01:00:09.543Z,8.13
2018-12-28T01:02:38.348Z,9.07
2018-12-28T01:05:06.859Z,8.43
2018-12-28T01:07:35.370Z,8.37
2018-12-28T01:10:05.251Z,8.03
2018-12-28T01:12:33.700Z,8.40
2018-12-28T01:15:04.759Z,9.27
2018-12-28T01:17:33.267Z,9.53
2018-12-28T01:20:01.712Z,8.90
2018-12-28T01:22:30.151Z,8.73
2018-12-28T01:24:58.679Z,8.83
2018-12-28T01:27:27.120Z,9.50
2018-12-28T01:29:55.594Z,8.40
2018-12-28T01:32:24.057Z,9.50
2018-12-28T01:34:52.500Z,8.13
2018-12-28T01:37:21.026Z,8.20
2018-12-28T01:39:49.462Z,9.80
2018-12-28T01:42:17.913Z,9.70
2018-12-28T01:44:46.427Z,8.50
2018-12-28T01:47:14.883Z,8.73
2018-12-28T01:49:43.307Z,8.67
2018-12-28T01:52:11.803Z,9.40
2018-12-28T01:54:40.296Z,10.10
2018-12-28T01:57:08.836Z,11.80
2018-12-28T01:59:37.359Z,10.67
2018-12-28T02:02:05.789Z,9.07
2018-12-28T02:04:34.313Z,10.00
2018-12-28T02:07:02.762Z,9.80
2018-12-28T02:09:31.232Z,10.17
2018-12-28T02:11:59.680Z,10.20
2018-12-28T02:14:28.212Z,10.23
2018-12-28T02:16:56.660Z,8.97
2018-12-28T02:19:25.292Z,9.30
2018-12-28T02:21:53.980Z,10.10
2018-12-28T02:24:22.572Z,9.53
2018-12-28T02:26:51.012Z,10.30
2018-12-28T02:29:19.499Z,10.97
2018-12-28T02:31:47.957Z,10.13
2018-12-28T02:34:16.771Z,10.13
2018-12-28T02:36:45.267Z,10.23
2018-12-28T02:39:13.741Z,9.03
2018-12-28T02:41:42.264Z,10.83
2018-12-28T02:44:10.710Z,11.10
2018-12-28T02:46:39.158Z,10.30
2018-12-28T02:49:07.602Z,10.73
2018-12-28T02:51:36.091Z,9.93
2018-12-28T02:54:04.725Z,10.20
2018-12-28T02:56:33.189Z,10.27
2018-12-28T02:59:01.695Z,10.23
2018-12-28T03:01:30.283Z,11.00
2018-12-28T03:03:58.781Z,11.30
2018-12-28T03:06:27.236Z,10.53
2018-12-28T03:08:55.730Z,9.90
2018-12-28T03:11:24.254Z,10.50
2018-12-28T03:14:12.168Z,10.07
2018-12-28T03:16:40.687Z,11.27
2018-12-28T03:19:09.168Z,10.30
2018-12-28T03:21:37.624Z,10.57
2018-12-28T03:24:06.169Z,10.47
2018-12-28T03:26:34.759Z,11.17
2018-12-28T03:29:03.197Z,11.10
2018-12-28T03:31:31.748Z,11.87
2018-12-28T03:34:00.264Z,10.10
2018-12-28T03:36:28.725Z,9.90
2018-12-28T03:38:57.240Z,10.43
2018-12-28T03:41:25.835Z,10.67
2018-12-28T03:44:02.131Z,10.97
2018-12-28T03:46:30.653Z,12.67
2018-12-28T03:49:04.847Z,11.30
2018-12-28T03:51:33.316Z,10.73
2018-12-28T03:54:01.816Z,9.97
2018-12-28T03:56:30.299Z,10.13
2018-12-28T03:58:58.839Z,10.10
2018-12-28T04:01:27.270Z,10.70
2018-12-28T04:03:55.730Z,10.67
2018-12-28T04:06:24.171Z,11.20
2018-12-28T04:08:52.645Z,10.60
2018-12-28T04:11:21.142Z,10.27
2018-12-28T04:13:49.766Z,10.23
2018-12-28T04:16:18.218Z,11.40
2018-12-28T04:18:46.679Z,11.70
2018-12-28T04:21:34.461Z,11.37
2018-12-28T04:24:02.917Z,11.33
2018-12-28T04:26:31.355Z,12.80
2018-12-28T04:28:59.830Z,12.10
2018-12-28T04:31:47.637Z,10.60
2018-12-28T04:34:16.095Z,10.40
2018-12-28T04:36:44.533Z,11.43
2018-12-28T04:39:12.988Z,11.37
2018-12-28T04:41:41.449Z,12.20
2018-12-28T04:44:09.901Z,11.63
2018-12-28T04:46:38.525Z,10.60
2018-12-28T04:49:07.020Z,11.43
2018-12-28T04:51:36.175Z,11.93
2018-12-28T04:54:05.472Z,10.73
2018-12-28T04:56:35.547Z,11.83
2018-12-28T04:59:25.105Z,10.73
2018-12-28T05:01:57.018Z,11.47
2018-12-28T05:04:28.616Z,11.33
2018-12-28T05:07:16.756Z,11.20
2018-12-28T05:09:57.749Z,11.87
2018-12-28T05:12:41.811Z,11.80
2018-12-28T05:15:28.276Z,11.80
2018-12-28T05:18:23.952Z,10.43
2018-12-28T05:21:24.756Z,11.90
2018-12-28T05:24:15.475Z,11.23
2018-12-28T05:26:52.813Z,11.90
2018-12-28T05:29:24.475Z,11.70
2018-12-28T05:31:53.839Z,11.53
2018-12-28T05:34:23.001Z,11.70
2018-12-28T05:36:51.710Z,11.57
2018-12-28T05:39:21.107Z,11.57
2018-12-28T05:41:50.204Z,11.10
2018-12-28T05:44:19.161Z,11.77
2018-12-28T05:46:47.640Z,11.60
2018-12-28T05:49:16.169Z,11.80
2018-12-28T05:52:03.975Z,11.60
2018-12-28T05:54:32.431Z,12.53
2018-12-28T05:57:00.862Z,12.37
2018-12-28T05:59:29.380Z,12.30
2018-12-28T06:01:57.896Z,14.10
2018-12-28T06:04:26.347Z,13.50
2018-12-28T06:06:54.802Z,14.23
2018-12-28T06:09:23.311Z,13.10
2018-12-28T06:11:51.795Z,13.00
2018-12-28T06:14:20.291Z,13.70
2018-12-28T06:16:48.749Z,12.97
2018-12-28T06:19:17.182Z,12.70
2018-12-28T06:21:45.631Z,12.50
2018-12-28T06:24:14.139Z,12.13
2018-12-28T06:26:42.571Z,13.93
2018-12-28T06:29:11.019Z,12.87
2018-12-28T06:31:45.600Z,13.13
2018-12-28T06:34:14.130Z,13.70
2018-12-28T06:37:01.996Z,12.70
2018-12-28T06:39:30.504Z,13.53
2018-12-28T06:41:59.034Z,14.10
2018-12-28T06:44:27.537Z,13.20
2018-12-28T06:46:55.978Z,13.17
2018-12-28T06:49:24.428Z,12.13
2018-12-28T06:51:53.018Z,12.90
2018-12-28T06:54:42.828Z,13.37
2018-12-28T06:57:47.900Z,12.13
2018-12-28T07:00:35.885Z,12.97
2018-12-28T07:03:24.804Z,14.20
2018-12-28T07:06:14.231Z,15.70
2018-12-28T07:09:14.532Z,13.17
2018-12-28T07:11:51.858Z,12.73
2018-12-28T07:14:38.650Z,13.07
2018-12-28T07:17:36.401Z,12.70
2018-12-28T07:20:16.663Z,12.37
2018-12-28T07:23:17.847Z,12.80
2018-12-28T07:26:24.695Z,13.50
2018-12-28T07:29:05.100Z,12.30
2018-12-28T07:31:54.411Z,12.40
2018-12-28T07:34:47.203Z,12.80
2018-12-28T07:37:24.492Z,12.67
2018-12-28T07:40:12.398Z,15.90
2018-12-28T07:43:11.145Z,13.70
2018-12-28T07:45:56.730Z,13.00
2018-12-28T07:48:40.057Z,12.40
2018-12-28T07:51:14.460Z,12.10
2018-12-28T07:54:12.840Z,14.10
2018-12-28T07:56:56.684Z,13.77
2018-12-28T07:59:40.321Z,12.63
2018-12-28T08:02:20.376Z,12.70
2018-12-28T08:05:14.329Z,13.37
2018-12-28T08:07:57.775Z,13.67
2018-12-28T08:10:43.643Z,13.77
2018-12-28T08:13:36.531Z,15.00
2018-12-28T08:16:25.848Z,13.07
2018-12-28T08:19:33.956Z,13.90
2018-12-28T08:22:25.455Z,13.30
2018-12-28T08:25:08.996Z,14.83
2018-12-28T08:28:00.347Z,16.40
2018-12-28T08:30:43.821Z,13.37
2018-12-28T08:33:41.033Z,13.30
2018-12-28T08:36:36.031Z,13.00
2018-12-28T08:39:10.286Z,12.70
2018-12-28T08:41:47.784Z,12.87
2018-12-28T08:44:25.168Z,12.93
2018-12-28T08:47:11.519Z,12.90
2018-12-28T08:49:43.064Z,13.57
2018-12-28T08:52:34.283Z,13.27
2018-12-28T08:55:34.677Z,13.67
2018-12-28T08:58:34.051Z,13.10
2018-12-28T09:01:05.576Z,13.70
2018-12-28T09:03:45.760Z,14.90
2018-12-28T09:06:38.576Z,16.53
2018-12-28T09:09:12.914Z,15.20
2018-12-28T09:11:50.297Z,14.40
2018-12-28T09:14:38.195Z,16.00
2018-12-28T09:17:27.609Z,15.83
2018-12-28T09:20:01.901Z,14.87
2018-12-28T09:22:36.304Z,15.83
2018-12-28T09:25:19.499Z,16.40
2018-12-28T09:27:53.763Z,17.10
2018-12-28T09:30:28.259Z,17.47
2018-12-28T09:33:02.615Z,16.30
2018-12-28T09:35:43.068Z,17.77
2018-12-28T09:38:34.323Z,16.53
2018-12-28T09:41:32.795Z,16.37
2018-12-28T09:44:12.804Z,15.23
2018-12-28T09:47:08.819Z,17.23
2018-12-28T09:49:49.162Z,16.97
2018-12-28T09:52:20.679Z,15.00
2018-12-28T09:54:52.195Z,16.47
2018-12-28T09:57:50.323Z,16.73
2018-12-28T10:00:27.430Z,16.80
2018-12-28T10:03:04.632Z,17.03
2018-12-28T10:05:41.712Z,16.87
2018-12-28T10:08:43.360Z,16.50
2018-12-28T10:11:35.215Z,17.23
2018-12-28T10:14:09.595Z,38.07
2018-12-28T10:16:38.042Z,18.33
2018-12-28T10:19:06.508Z,17.33
2018-12-28T10:21:34.940Z,18.93
2018-12-28T10:24:03.398Z,32.40
2018-12-28T10:26:31.855Z,18.20
2018-12-28T10:29:00.308Z,17.73
2018-12-28T10:31:28.747Z,18.70
2018-12-28T10:33:57.203Z,17.30
2018-12-28T10:36:25.642Z,17.40
2018-12-28T10:38:54.096Z,18.83
2018-12-28T10:41:22.531Z,19.00
2018-12-28T10:43:50.974Z,19.50
2018-12-28T10:46:19.432Z,18.20
2018-12-28T10:48:47.873Z,30.87
2018-12-28T10:51:17.830Z,30.00
2018-12-28T10:53:46.644Z,20.10
2018-12-28T10:56:15.112Z,18.67
2018-12-28T10:58:43.550Z,20.83
2018-12-28T11:01:12.083Z,19.07
2018-12-28T11:03:40.521Z,21.20
2018-12-28T11:06:08.983Z,19.57
2018-12-28T11:08:37.442Z,18.17
2018-12-28T11:11:05.970Z,18.60
2018-12-28T11:13:34.483Z,28.87
2018-12-28T11:16:02.949Z,19.53
2018-12-28T11:18:31.393Z,16.23
2018-12-28T11:20:59.850Z,15.80
2018-12-28T11:23:29.305Z,16.67
2018-12-28T11:25:57.761Z,16.33
2018-12-28T11:28:26.279Z,16.40
2018-12-28T11:30:54.715Z,16.50
2018-12-28T11:33:23.183Z,18.10
2018-12-28T11:35:51.624Z,16.50
2018-12-28T11:38:20.100Z,17.27
2018-12-28T11:40:48.545Z,18.63
2018-12-28T11:43:16.999Z,18.37
2018-12-28T11:45:46.425Z,18.93
2018-12-28T11:48:14.911Z,19.30
2018-12-28T11:50:49.959Z,19.17
2018-12-28T11:53:13.588Z,19.67
2018-12-28T11:55:43.016Z,18.80
2018-12-28T11:58:11.498Z,18.83
2018-12-28T12:00:39.992Z,17.90
2018-12-28T12:03:08.429Z,20.13
2018-12-28T12:05:44.636Z,20.53
2018-12-28T12:08:18.827Z,19.67
2018-12-28T12:10:47.279Z,19.50
2018-12-28T12:13:15.719Z,19.17
2018-12-28T12:15:44.183Z,19.90
2018-12-28T12:18:12.627Z,21.17
2018-12-28T12:20:41.068Z,19.87
2018-12-28T12:23:09.520Z,19.67
2018-12-28T12:25:38.040Z,20.27
2018-12-28T12:28:06.489Z,20.17
2018-12-28T12:30:40.922Z,21.00
2018-12-28T12:33:09.365Z,19.03
2018-12-28T12:35:37.801Z,21.50
2018-12-28T12:38:07.289Z,20.00
2018-12-28T12:40:35.732Z,19.60
2018-12-28T12:43:04.183Z,20.03
2018-12-28T12:45:32.631Z,19.97
2018-12-28T12:48:20.411Z,19.37
2018-12-28T12:50:48.876Z,19.00
2018-12-28T12:53:17.332Z,17.70
2018-12-28T12:55:45.767Z,19.23
2018-12-28T12:58:14.253Z,19.00
2018-12-28T13:00:43.672Z,19.30
2018-12-28T13:03:12.125Z,18.90
2018-12-28T13:05:40.563Z,18.60
2018-12-28T13:08:09.035Z,18.33
2018-12-28T13:10:56.815Z,20.00
2018-12-28T13:13:25.278Z,18.47
2018-12-28T13:15:53.748Z,19.20
2018-12-28T13:18:22.208Z,21.00
2018-12-28T13:20:50.652Z,19.27
2018-12-28T13:23:19.111Z,20.23
2018-12-28T13:25:47.553Z,19.60
2018-12-28T13:28:15.989Z,19.40
2018-12-28T13:30:44.451Z,19.77
2018-12-28T13:33:12.887Z,18.67
2018-12-28T13:35:50.488Z,19.40
2018-12-28T13:38:18.928Z,20.03
2018-12-28T13:40:47.383Z,20.17
2018-12-28T13:43:15.817Z,20.13
2018-12-28T13:45:44.299Z,21.00
2018-12-28T13:48:12.739Z,20.33
2018-12-28T13:50:41.198Z,20.00
2018-12-28T13:53:09.642Z,20.00
2018-12-28T13:55:39.640Z,20.17
2018-12-28T13:58:08.093Z,20.33
2018-12-28T14:00:36.606Z,20.40
2018-12-28T14:03:05.070Z,20.93
2018-12-28T14:05:33.583Z,20.20
2018-12-28T14:08:02.021Z,19.50
2018-12-28T14:10:30.455Z,22.60
2018-12-28T14:12:58.915Z,21.03
2018-12-28T14:15:27.364Z,19.67
2018-12-28T14:17:55.843Z,21.03
2018-12-28T14:20:24.276Z,22.00
2018-12-28T14:22:52.729Z,21.03
2018-12-28T14:25:21.169Z,21.73
2018-12-28T14:27:49.624Z,19.90
2018-12-28T14:30:18.148Z,19.97
2018-12-28T14:32:46.581Z,20.80
2018-12-28T14:35:15.033Z,20.77
2018-12-28T14:37:43.469Z,21.30
2018-12-28T14:40:11.927Z,21.03
2018-12-28T14:42:40.372Z,26.00
2018-12-28T14:45:08.831Z,22.70
2018-12-28T14:47:37.757Z,21.60
2018-12-28T14:50:07.396Z,21.43
2018-12-28T14:52:35.835Z,21.83
2018-12-28T14:55:04.739Z,21.67
2018-12-28T14:57:33.216Z,21.90
2018-12-28T15:00:01.733Z,21.63
2018-12-28T15:02:30.247Z,22.13
2018-12-28T15:04:58.784Z,21.97
2018-12-28T15:07:46.639Z,21.10
2018-12-28T15:10:15.469Z,21.27
2018-12-28T15:12:44.026Z,21.60
2018-12-28T15:15:12.798Z,21.50
2018-12-28T15:17:41.371Z,22.43
2018-12-28T15:20:09.808Z,20.60
2018-12-28T15:22:38.259Z,21.50
2018-12-28T15:25:06.798Z,20.40
2018-12-28T15:27:35.263Z,22.17
2018-12-28T15:30:05.147Z,21.47
2018-12-28T15:32:33.590Z,23.63
2018-12-28T15:35:02.059Z,21.50
2018-12-28T15:37:30.505Z,22.27
2018-12-28T15:39:58.962Z,21.70
2018-12-28T15:42:27.419Z,20.90
2018-12-28T15:44:55.875Z,22.73
2018-12-28T15:47:24.324Z,22.50
2018-12-28T15:49:52.779Z,22.90
2018-12-28T15:52:21.223Z,20.33
2018-12-28T15:54:49.729Z,20.50
2018-12-28T15:57:18.166Z,20.83
2018-12-28T15:59:46.636Z,19.60
2018-12-28T16:02:15.130Z,20.70
2018-12-28T16:04:43.633Z,23.10
2018-12-28T16:07:12.126Z,20.27
2018-12-28T16:09:40.618Z,19.50
2018-12-28T16:12:09.080Z,21.30
2018-12-28T16:14:38.372Z,21.23
2018-12-28T16:17:06.854Z,20.53
2018-12-28T16:19:35.708Z,19.50
2018-12-28T16:22:04.162Z,21.00
2018-12-28T16:24:32.603Z,22.30
2018-12-28T16:27:01.086Z,25.03
2018-12-28T16:29:29.526Z,21.53
2018-12-28T16:31:57.967Z,21.17
2018-12-28T16:34:26.432Z,23.60
2018-12-28T16:36:54.939Z,21.10
2018-12-28T16:39:23.391Z,21.80
2018-12-28T16:41:51.829Z,21.07
2018-12-28T16:44:20.304Z,21.80
2018-12-28T16:46:48.760Z,21.10
2018-12-28T16:49:17.208Z,21.53
2018-12-28T16:51:45.663Z,22.17
2018-12-28T16:54:14.111Z,22.77
2018-12-28T16:56:43.609Z,23.20
2018-12-28T16:59:12.066Z,21.83
2018-12-28T17:01:40.519Z,20.60
2018-12-28T17:04:08.998Z,22.67
2018-12-28T17:06:37.503Z,21.40
2018-12-28T17:09:07.692Z,21.10
2018-12-28T17:11:36.131Z,20.97
2018-12-28T17:14:04.586Z,20.23
2018-12-28T17:16:33.035Z,20.13
2018-12-28T17:19:01.524Z,20.77
2018-12-28T17:21:29.967Z,21.07
2018-12-28T17:23:58.415Z,22.40
2018-12-28T17:26:26.935Z,20.57
2018-12-28T17:28:55.376Z,22.30
2018-12-28T17:31:23.829Z,21.20
2018-12-28T17:33:52.340Z,20.90
2018-12-28T17:36:20.791Z,21.00
2018-12-28T17:38:49.231Z,21.20
2018-12-28T17:41:18.876Z,20.73
2018-12-28T17:43:47.324Z,21.13
2018-12-28T17:46:15.791Z,21.10
2018-12-28T17:48:44.295Z,21.00
2018-12-28T17:51:12.773Z,22.13
2018-12-28T17:53:41.275Z,20.47
2018-12-28T17:56:09.715Z,20.13
2018-12-28T17:58:39.146Z,20.20
2018-12-28T18:01:07.600Z,20.50
2018-12-28T18:03:36.110Z,21.80
2018-12-28T18:06:04.586Z,21.87
2018-12-28T18:08:33.080Z,20.77
2018-12-28T18:11:01.517Z,21.80
2018-12-28T18:13:29.982Z,21.70
2018-12-28T18:15:58.413Z,22.43
2018-12-28T18:18:26.866Z,20.90
2018-12-28T18:20:55.455Z,22.70
2018-12-28T18:23:24.907Z,22.00
2018-12-28T18:26:12.711Z,21.43
2018-12-28T18:29:00.509Z,22.00
2018-12-28T18:31:28.975Z,21.90
2018-12-28T18:33:57.445Z,20.00
2018-12-28T18:36:25.899Z,19.90
2018-12-28T18:38:54.359Z,22.70
2018-12-28T18:41:22.947Z,21.27
2018-12-28T18:43:51.383Z,20.83
2018-12-28T18:46:19.850Z,20.30
2018-12-28T18:48:48.292Z,21.60
2018-12-28T18:51:36.085Z,23.20
2018-12-28T18:54:04.527Z,22.27
2018-12-28T18:56:32.995Z,22.90
2018-12-28T18:59:01.431Z,21.20
2018-12-28T19:01:29.864Z,20.37
2018-12-28T19:03:58.315Z,23.47
2018-12-28T19:06:26.751Z,20.93
2018-12-28T19:08:55.215Z,21.43
2018-12-28T19:11:23.655Z,21.00
2018-12-28T19:13:52.108Z,21.77
2018-12-28T19:16:20.552Z,21.73
2018-12-28T19:18:49.020Z,21.07
2018-12-28T19:21:23.536Z,18.77
2018-12-28T19:23:52.181Z,20.17
2018-12-28T19:26:20.702Z,17.97
2018-12-28T19:28:49.168Z,19.13
2018-12-28T19:31:17.631Z,18.93
2018-12-28T19:33:46.145Z,26.87
2018-12-28T19:36:14.585Z,18.47
2018-12-28T19:38:43.027Z,19.03
2018-12-28T19:41:11.515Z,18.50
2018-12-28T19:43:40.034Z,18.50
2018-12-28T19:46:08.471Z,18.10
2018-12-28T19:48:36.924Z,18.00
2018-12-28T19:51:05.510Z,17.97
2018-12-28T19:53:34.011Z,18.30
2018-12-28T19:56:02.528Z,17.30
2018-12-28T19:58:30.995Z,17.67
2018-12-28T20:00:59.445Z,17.17
2018-12-28T20:03:27.911Z,18.80
2018-12-28T20:05:56.441Z,17.00
2018-12-28T20:08:24.880Z,17.87
2018-12-28T20:10:53.344Z,18.13
2018-12-28T20:13:21.796Z,20.43
2018-12-28T20:16:09.601Z,18.53
2018-12-28T20:18:38.061Z,19.23
2018-12-28T20:21:06.548Z,20.47
2018-12-28T20:23:35.051Z,21.03
2018-12-28T20:26:03.517Z,20.43
2018-12-28T20:28:31.981Z,20.73
2018-12-28T20:31:00.507Z,20.20
2018-12-28T20:33:32.431Z,20.37
2018-12-28T20:36:00.980Z,21.50
2018-12-28T20:38:29.424Z,20.03
2018-12-28T20:40:59.432Z,20.93
2018-12-28T20:43:30.060Z,21.43
2018-12-28T20:45:58.503Z,21.00
2018-12-28T20:48:26.976Z,48.50
2018-12-28T20:50:55.425Z,22.20
2018-12-28T20:53:23.914Z,22.63
2018-12-28T20:55:52.420Z,21.80
2018-12-28T20:58:20.872Z,20.97
2018-12-28T21:00:49.316Z,20.63
2018-12-28T21:03:17.776Z,27.87
2018-12-28T21:05:46.233Z,31.17
2018-12-28T21:08:14.715Z,26.20
2018-12-28T21:10:44.372Z,21.13
2018-12-28T21:13:12.845Z,21.10
2018-12-28T21:15:41.310Z,19.07
2018-12-28T21:18:09.743Z,21.33
2018-12-28T21:20:38.196Z,20.90
2018-12-28T21:23:06.719Z,19.60
2018-12-28T21:25:35.242Z,21.30
2018-12-28T21:28:03.703Z,21.00
2018-12-28T21:30:32.158Z,20.97
2018-12-28T21:33:00.623Z,21.20
2018-12-28T21:35:29.096Z,19.07
2018-12-28T21:37:57.534Z,20.37
2018-12-28T21:40:26.003Z,20.20
2018-12-28T21:42:54.453Z,20.50
2018-12-28T21:45:22.893Z,22.50
2018-12-28T21:48:10.697Z,22.67
2018-12-28T21:50:39.143Z,20.80
2018-12-28T21:53:07.592Z,20.17
2018-12-28T21:55:36.028Z,20.57
2018-12-28T21:58:04.496Z,19.03
2018-12-28T22:00:32.935Z,21.23
2018-12-28T22:03:01.396Z,21.30
2018-12-28T22:05:29.865Z,19.60
2018-12-28T22:07:58.305Z,21.00
2018-12-28T22:10:26.807Z,21.43
2018-12-28T22:12:55.247Z,20.93
2018-12-28T22:15:23.703Z,20.00
2018-12-28T22:17:52.139Z,20.53
2018-12-28T22:20:20.601Z,19.60
2018-12-28T22:22:49.043Z,21.03
2018-12-28T22:25:17.508Z,21.03
2018-12-28T22:27:45.951Z,19.67
2018-12-28T22:30:14.416Z,19.30
2018-12-28T22:32:42.855Z,22.97
2018-12-28T22:35:11.296Z,20.30
2018-12-28T22:37:39.747Z,21.20
2018-12-28T22:40:08.359Z,41.83
2018-12-28T22:42:42.600Z,20.27
2018-12-28T22:45:13.194Z,25.63
2018-12-28T22:47:41.723Z,34.43
2018-12-28T22:50:10.167Z,20.00
2018-12-28T22:52:38.627Z,21.80
2018-12-28T22:55:07.208Z,18.90
2018-12-28T22:57:35.650Z,20.50
2018-12-28T23:00:09.071Z,19.90
2018-12-28T23:02:37.531Z,19.30
2018-12-28T23:05:06.157Z,21.23
2018-12-28T23:07:34.600Z,19.60
2018-12-28T23:10:03.447Z,20.30
2018-12-28T23:12:31.895Z,19.50
2018-12-28T23:15:00.347Z,22.10
2018-12-28T23:17:28.810Z,20.30
2018-12-28T23:19:57.333Z,22.37
2018-12-28T23:22:25.808Z,20.47
2018-12-28T23:24:54.245Z,21.57
2018-12-28T23:27:22.699Z,20.23
2018-12-28T23:29:58.148Z,19.73
2018-12-28T23:32:21.312Z,20.50
2018-12-28T23:34:50.762Z,18.87
2018-12-28T23:37:19.240Z,20.23
2018-12-28T23:39:47.683Z,19.47
2018-12-28T23:42:16.136Z,20.60
2018-12-28T23:44:47.767Z,20.13
2018-12-28T23:47:34.111Z,20.67
2018-12-28T23:50:02.610Z,19.73
2018-12-28T23:52:31.065Z,21.70
2018-12-28T23:54:59.587Z,19.33
2018-12-28T23:57:28.025Z,19.60
2018-12-28T23:59:56.479Z,20.07
